Time,TemperatureF,DewpointF,PressureIn,WindDirection,WindDirectionDegrees,WindSpeedMPH,WindSpeedGustMPH,Humidity,HourlyPrecipIn,Conditions,Clouds,dailyrainin,SoftwareType,DateUTC
2013-03-26 07:10:00,33.4,25.7,29.74,West,265,0.0,0.0,73,0.04,,---,0.00,VWS V14.01,2013-03-26 11:10:00,
2013-03-26 07:11:00,33.4,25.7,29.74,West,265,0.0,0.0,73,0.00,,---,0.00,VWS V14.01,2013-03-26 11:11:00,
2013-03-26 07:12:00,33.4,25.7,29.74,West,265,0.0,0.0,73,0.00,,---,0.00,VWS V14.01,2013-03-26 11:12:00,
2013-03-26 07:15:00,33.4,26.1,29.74,West,265,0.0,0.0,74,0.00,,---,0.00,VWS V14.01,2013-03-26 11:15:00,
2013-03-26 07:22:00,33.4,26.1,29.74,West,266,0.0,0.0,74,0.00,,---,0.00,VWS V14.01,2013-03-26 11:22:00,
2013-03-26 07:28:00,33.4,26.1,29.74,West,266,0.0,0.0,74,0.00,,---,0.00,VWS V14.01,2013-03-26 11:28:00,
2013-03-26 07:34:00,33.6,26.2,29.74,West,266,0.0,0.0,74,0.00,,---,0.00,VWS V14.01,2013-03-26 11:34:00,
2013-03-26 07:39:00,33.8,26.4,29.74,West,265,0.0,0.0,74,0.00,,---,0.00,VWS V14.01,2013-03-26 11:39:00,
2013-03-26 07:44:00,34.0,26.6,29.74,West,265,0.0,0.0,74,0.00,,---,0.00,VWS V14.01,2013-03-26 11:44:00,
2013-03-26 07:49:00,34.3,26.9,29.74,West,266,0.0,0.0,74,0.00,,---,0.00,VWS V14.01,2013-03-26 11:49:00,
2013-03-26 07:55:00,34.7,27.6,29.74,West,266,0.0,0.0,75,0.00,,---,0.00,VWS V14.01,2013-03-26 11:55:00,
2013-03-26 08:00:00,35.1,28.0,29.74,West,266,0.0,0.0,75,0.00,,---,0.00,VWS V14.01,2013-03-26 12:00:00,
2013-03-26 08:06:00,35.4,28.3,29.74,West,270,0.0,0.0,75,0.00,,---,0.00,VWS V14.01,2013-03-26 12:06:00,
2013-03-26 08:12:00,35.8,28.6,29.74,West,260,5.0,5.7,75,0.00,,---,0.00,VWS V14.01,2013-03-26 12:12:00,
2013-03-26 08:17:00,36.1,29.0,29.74,WSW,254,4.3,6.4,75,0.00,,---,0.00,VWS V14.01,2013-03-26 12:17:00,
2013-03-26 08:23:00,36.5,29.7,29.74,West,278,6.4,6.4,76,0.00,,---,0.00,VWS V14.01,2013-03-26 12:23:00,
2013-03-26 08:28:00,36.9,30.0,29.74,West,273,4.3,7.9,76,0.00,,---,0.00,VWS V14.01,2013-03-26 12:28:00,
2013-03-26 08:33:00,37.2,30.4,29.74,West,263,3.6,5.7,76,0.00,,---,0.00,VWS V14.01,2013-03-26 12:33:00,
2013-03-26 08:38:00,37.6,30.7,29.77,WSW,252,0.0,0.0,76,0.00,,---,0.00,VWS V14.01,2013-03-26 12:38:00,
2013-03-26 08:44:00,38.1,31.2,29.77,West,263,0.0,5.7,76,0.00,,---,0.00,VWS V14.01,2013-03-26 12:44:00,
2013-03-26 08:49:00,38.5,31.3,29.77,West,263,6.4,7.9,75,0.00,,---,0.00,VWS V14.01,2013-03-26 12:49:00,
2013-03-26 08:55:00,39.0,31.8,29.77,West,271,0.0,5.7,75,0.00,,---,0.00,VWS V14.01,2013-03-26 12:55:00,
2013-03-26 09:00:00,39.4,32.1,29.77,West,265,0.0,0.0,75,0.00,,---,0.00,VWS V14.01,2013-03-26 13:00:00,
2013-03-26 09:06:00,39.9,32.3,29.77,WNW,297,6.4,6.4,74,0.00,,---,0.00,VWS V14.01,2013-03-26 13:06:00,
2013-03-26 09:12:00,40.3,32.3,29.77,West,280,0.0,0.0,73,0.00,,---,0.00,VWS V14.01,2013-03-26 13:12:00,
2013-03-26 09:17:00,40.6,32.3,29.77,West,280,9.3,9.3,72,0.00,,---,0.00,VWS V14.01,2013-03-26 13:17:00,
2013-03-26 09:23:00,41.0,32.0,29.77,WSW,245,9.3,10.7,70,0.00,,---,0.00,VWS V14.01,2013-03-26 13:23:00,
2013-03-26 09:29:00,41.4,31.2,29.77,WNW,282,7.2,9.3,67,0.00,,---,0.00,VWS V14.01,2013-03-26 13:29:00,
2013-03-26 09:34:00,41.9,30.2,29.77,WNW,288,0.0,3.6,63,0.00,,---,0.00,VWS V14.01,2013-03-26 13:34:00,
2013-03-26 09:40:00,42.8,29.5,29.77,NNW,342,7.9,10.0,59,0.00,,---,0.00,VWS V14.01,2013-03-26 13:40:00,
2013-03-26 09:45:00,43.2,28.1,29.77,WNW,286,14.0,14.0,55,0.00,,---,0.00,VWS V14.01,2013-03-26 13:45:00,
2013-03-26 09:51:00,43.7,27.7,29.77,WNW,301,4.3,6.4,53,0.00,,---,0.00,VWS V14.01,2013-03-26 13:51:00,
2013-03-26 09:57:00,43.9,26.0,29.77,West,281,14.7,14.7,49,0.00,,---,0.00,VWS V14.01,2013-03-26 13:57:00,
2013-03-26 10:02:00,44.1,25.6,29.77,West,281,14.7,14.7,48,0.00,,---,0.00,VWS V14.01,2013-03-26 14:02:00,
2013-03-26 10:08:00,44.1,25.6,29.77,West,281,14.7,14.7,48,0.00,,---,0.00,VWS V14.01,2013-03-26 14:08:00,
2013-03-26 10:13:00,44.6,24.6,29.77,West,269,11.5,11.5,45,0.00,,---,0.00,VWS V14.01,2013-03-26 14:13:00,
2013-03-26 10:19:00,45.1,23.4,29.77,West,269,11.5,11.5,42,0.00,,---,0.00,VWS V14.01,2013-03-26 14:19:00,
2013-03-26 10:24:00,45.1,23.4,29.77,West,269,11.5,11.5,42,0.00,,---,0.00,VWS V14.01,2013-03-26 14:24:00,
2013-03-26 10:30:00,45.5,23.2,29.77,West,269,11.5,11.5,41,0.00,,---,0.00,VWS V14.01,2013-03-26 14:30:00,
2013-03-26 10:36:00,45.7,22.8,29.77,West,269,11.5,11.5,40,0.00,,---,0.00,VWS V14.01,2013-03-26 14:36:00,
2013-03-26 10:41:00,45.9,22.3,29.77,West,269,11.5,11.5,39,0.00,,---,0.00,VWS V14.01,2013-03-26 14:41:00,
2013-03-26 10:46:00,45.9,22.3,29.77,West,269,11.5,11.5,39,0.00,,---,0.00,VWS V14.01,2013-03-26 14:46:00,
2013-03-26 10:52:00,45.9,22.3,29.77,West,269,11.5,11.5,39,0.00,,---,0.00,VWS V14.01,2013-03-26 14:52:00,
2013-03-26 10:58:00,46.0,21.9,29.77,West,269,11.5,11.5,38,0.00,,---,0.00,VWS V14.01,2013-03-26 14:58:00,
2013-03-26 11:03:00,46.0,21.9,29.77,West,269,11.5,11.5,38,0.00,,---,0.00,VWS V14.01,2013-03-26 15:03:00,
2013-03-26 11:08:00,46.0,21.9,29.77,West,269,11.5,11.5,38,0.00,,---,0.00,VWS V14.01,2013-03-26 15:08:00,
2013-03-26 11:14:00,46.0,21.9,29.77,West,269,11.5,11.5,38,0.00,,---,0.00,VWS V14.01,2013-03-26 15:14:00,
2013-03-26 11:20:00,46.4,21.6,29.77,West,269,11.5,11.5,37,0.00,,---,0.00,VWS V14.01,2013-03-26 15:20:00,
2013-03-26 11:26:00,46.8,21.9,29.77,West,269,11.5,11.5,37,0.00,,---,0.00,VWS V14.01,2013-03-26 15:26:00,
2013-03-26 11:32:00,46.9,22.0,29.77,West,269,11.5,11.5,37,0.00,,---,0.00,VWS V14.01,2013-03-26 15:32:00,
2013-03-26 11:37:00,47.3,21.7,29.77,West,269,11.5,11.5,36,0.00,,---,0.00,VWS V14.01,2013-03-26 15:37:00,
2013-03-26 11:43:00,47.3,21.7,29.77,West,269,11.5,11.5,36,0.00,,---,0.00,VWS V14.01,2013-03-26 15:43:00,
2013-03-26 11:48:00,47.8,19.4,29.77,West,269,11.5,11.5,32,0.00,,---,0.00,VWS V14.01,2013-03-26 15:48:00,
2013-03-26 11:54:00,48.6,18.5,29.77,West,269,11.5,11.5,30,0.00,,---,0.00,VWS V14.01,2013-03-26 15:54:00,
2013-03-26 12:00:00,48.6,18.5,29.77,West,269,11.5,11.5,30,0.00,,---,0.00,VWS V14.01,2013-03-26 16:00:00,
2013-03-26 12:05:00,49.1,19.0,29.77,West,269,11.5,11.5,30,0.00,,---,0.00,VWS V14.01,2013-03-26 16:05:00,
2013-03-26 12:11:00,49.3,19.2,29.77,West,269,11.5,11.5,30,0.00,,---,0.00,VWS V14.01,2013-03-26 16:11:00,
2013-03-26 12:17:00,49.5,19.3,29.77,West,269,11.5,11.5,30,0.00,,---,0.00,VWS V14.01,2013-03-26 16:17:00,
2013-03-26 12:23:00,50.0,19.0,29.77,West,269,11.5,11.5,29,0.00,,---,0.00,VWS V14.01,2013-03-26 16:23:00,
2013-03-26 12:29:00,50.0,18.2,29.77,West,269,11.5,11.5,28,0.00,,---,0.00,VWS V14.01,2013-03-26 16:29:00,
2013-03-26 12:34:00,50.0,18.2,29.77,West,269,11.5,11.5,28,0.00,,---,0.00,VWS V14.01,2013-03-26 16:34:00,